Share

Kairouan, Tunisia

4:02 PM CET on April 23, 2014 (GMT +0100)
Enfidha Hammamet Intl Air (DTNH) Elev 20 ft | 36.07 °N, 10.43 °E | Change Station

Current weather conditions updated 32 minutes ago

Clear
Clear
77 °F
Feels Like 77 °F
N
20
Wind Variable Wind from NW
Sunrise 5:37 AM
Sunset 6:59 PM
Moon Waning Crescent

Tomorrow is forecast to be Warmer than today.

Pressure 30.01 in
Visibility -9999.0 miles
Clouds
Dew Point 50 °F
Humidity 39%
Rainfall 0.00 in
Snow Depth Not available.
UV Not available.
Pollen Not available.
Air Quality Not available.
Flu Activity Not available.
METAR DTNH 231430Z AUTO 31017KT 280V340 CAVOK 25/10 Q1016

More Conditions Fewer Conditions

Pressure 30.01 in
Visibility -9999.0 miles
Clouds
Dew Point 50 °F
Humidity 39%
Rainfall 0.00 in
Snow Depth Not available.
UV Not available.
Pollen Not available.
Air Quality Not available.
Flu Activity Not available.
METAR DTNH 231430Z AUTO 31017KT 280V340 CAVOK 25/10 Q1016

More Conditions Fewer Conditions

10-Day Weather Forecast

Almanac

Astronomy

Apr. 23, 2014 Rise Set
Actual Time 5:37 AM CET 6:59 PM CET
Civil Twilight 5:10 AM CET 7:26 PM CET
Nautical Twilight 4:38 AM CET 7:58 PM CET
Astronomical Twilight 4:04 AM CET 8:31 PM CET
Moon 1:44 AM CET 1:01 PM CET
Length of Visible Light 14h 15m
Length of Day
13h 22m
Tomorrow will be 2m 2s longer.
Waning Crescent, 35% of the Moon is Illuminated
Today
Waning Crescent
Apr 29
New
May 6
First Quarter
May 14
Full
May 21
Last Quarter

Today's Extremes

Country Highs Country Lows

Community

  • spring flowers
    spring flowers
  • Earth Day Spectrum Ove' Blue
    Earth Day Spectrum Ove' Blue
  • BARN B&W
    BARN B&W
  • April Sunset
    April Sunset
  • Waiting..
    Waiting..

WunderPhotos

Upload Photos

1,704,303 photos uploaded!

Nearby

Snow Depth

Not available.

Coastal Water Temperatures

Place Temperature
No Stations Reporting

Earthquake Activity

City Distance Mag. Time & Date
No recent earthquake activity has been reported nearby.
Minimum magnitude displayed is 2.5.

Nearby Weather Stations

There are no personal weather stations in this area.

What do you think?

We're not finished. Please let us know what you like, what you don't like, and what you are still missing.